sensor_id;sensor_type;location;lat;lon;timestamp;P1;durP1;ratioP1;P2;durP2;ratioP2
21438;SDS011;10880;50.302;18.736;2024-02-26T00:00:05;13.53;;;6.97;;
21438;SDS011;10880;50.302;18.736;2024-02-26T00:02:35;13.70;;;6.77;;
21438;SDS011;10880;50.302;18.736;2024-02-26T00:05:06;13.13;;;6.80;;
21438;SDS011;10880;50.302;18.736;2024-02-26T00:07:34;14.17;;;7.17;;
21438;SDS011;10880;50.302;18.736;2024-02-26T00:10:00;16.27;;;7.47;;
21438;SDS011;10880;50.302;18.736;2024-02-26T00:12:26;13.70;;;7.00;;
21438;SDS011;10880;50.302;18.736;2024-02-26T00:14:53;14.20;;;7.43;;
21438;SDS011;10880;50.302;18.736;2024-02-26T00:17:22;16.43;;;7.87;;
21438;SDS011;10880;50.302;18.736;2024-02-26T00:19:51;11.27;;;6.53;;
21438;SDS011;10880;50.302;18.736;2024-02-26T00:22:18;13.40;;;7.17;;
21438;SDS011;10880;50.302;18.736;2024-02-26T00:24:45;14.40;;;7.57;;
21438;SDS011;10880;50.302;18.736;2024-02-26T00:27:11;14.03;;;7.20;;
21438;SDS011;10880;50.302;18.736;2024-02-26T00:29:37;14.83;;;7.53;;
21438;SDS011;10880;50.302;18.736;2024-02-26T00:32:04;15.47;;;8.03;;
21438;SDS011;10880;50.302;18.736;2024-02-26T00:34:31;16.40;;;7.30;;
21438;SDS011;10880;50.302;18.736;2024-02-26T00:36:57;15.30;;;7.17;;
21438;SDS011;10880;50.302;18.736;2024-02-26T00:39:24;13.90;;;7.10;;
21438;SDS011;10880;50.302;18.736;2024-02-26T00:41:50;12.37;;;6.93;;
21438;SDS011;10880;50.302;18.736;2024-02-26T00:44:17;13.27;;;6.60;;
21438;SDS011;10880;50.302;18.736;2024-02-26T00:46:46;11.87;;;7.47;;
21438;SDS011;10880;50.302;18.736;2024-02-26T00:49:12;11.77;;;6.13;;
21438;SDS011;10880;50.302;18.736;2024-02-26T00:51:39;14.60;;;6.37;;
21438;SDS011;10880;50.302;18.736;2024-02-26T00:54:05;13.47;;;6.50;;
21438;SDS011;10880;50.302;18.736;2024-02-26T00:56:31;11.67;;;5.60;;
21438;SDS011;10880;50.302;18.736;2024-02-26T00:58:58;12.23;;;6.63;;
21438;SDS011;10880;50.302;18.736;2024-02-26T01:01:25;11.13;;;6.57;;
21438;SDS011;10880;50.302;18.736;2024-02-26T01:03:51;13.40;;;6.60;;
21438;SDS011;10880;50.302;18.736;2024-02-26T01:06:18;12.30;;;6.60;;
21438;SDS011;10880;50.302;18.736;2024-02-26T01:08:44;10.93;;;6.33;;
21438;SDS011;10880;50.302;18.736;2024-02-26T01:11:10;12.67;;;6.87;;
21438;SDS011;10880;50.302;18.736;2024-02-26T01:13:37;13.73;;;7.20;;
21438;SDS011;10880;50.302;18.736;2024-02-26T01:16:03;16.10;;;7.80;;
21438;SDS011;10880;50.302;18.736;2024-02-26T01:18:30;16.50;;;7.40;;
21438;SDS011;10880;50.302;18.736;2024-02-26T01:20:59;12.80;;;7.23;;
21438;SDS011;10880;50.302;18.736;2024-02-26T01:23:25;14.20;;;6.80;;
21438;SDS011;10880;50.302;18.736;2024-02-26T01:25:52;17.03;;;7.77;;
21438;SDS011;10880;50.302;18.736;2024-02-26T01:28:18;17.87;;;7.43;;
21438;SDS011;10880;50.302;18.736;2024-02-26T01:30:44;14.50;;;7.20;;
21438;SDS011;10880;50.302;18.736;2024-02-26T01:33:11;14.90;;;7.23;;
21438;SDS011;10880;50.302;18.736;2024-02-26T01:35:38;16.10;;;7.50;;
21438;SDS011;10880;50.302;18.736;2024-02-26T01:38:04;17.33;;;8.30;;
21438;SDS011;10880;50.302;18.736;2024-02-26T01:40:31;14.03;;;7.53;;
21438;SDS011;10880;50.302;18.736;2024-02-26T01:42:58;15.17;;;7.37;;
21438;SDS011;10880;50.302;18.736;2024-02-26T01:45:30;15.80;;;7.37;;
21438;SDS011;10880;50.302;18.736;2024-02-26T01:47:56;12.30;;;6.63;;
21438;SDS011;10880;50.302;18.736;2024-02-26T01:50:26;13.20;;;7.07;;
21438;SDS011;10880;50.302;18.736;2024-02-26T01:52:55;13.73;;;7.50;;
21438;SDS011;10880;50.302;18.736;2024-02-26T01:55:23;14.70;;;7.20;;
21438;SDS011;10880;50.302;18.736;2024-02-26T01:57:53;10.97;;;6.33;;
21438;SDS011;10880;50.302;18.736;2024-02-26T02:06:47;13.23;;;6.73;;
21438;SDS011;10880;50.302;18.736;2024-02-26T02:09:27;15.27;;;7.47;;
21438;SDS011;10880;50.302;18.736;2024-02-26T02:12:03;13.90;;;6.80;;
21438;SDS011;10880;50.302;18.736;2024-02-26T02:14:41;15.43;;;7.20;;
21438;SDS011;10880;50.302;18.736;2024-02-26T02:17:09;14.43;;;7.27;;
21438;SDS011;10880;50.302;18.736;2024-02-26T02:19:54;16.00;;;8.13;;
21438;SDS011;10880;50.302;18.736;2024-02-26T02:22:29;13.80;;;7.83;;
21438;SDS011;10880;50.302;18.736;2024-02-26T02:25:20;17.03;;;8.33;;
21438;SDS011;10880;50.302;18.736;2024-02-26T02:28:08;16.27;;;8.03;;
21438;SDS011;10880;50.302;18.736;2024-02-26T02:30:44;15.57;;;7.30;;
21438;SDS011;10880;50.302;18.736;2024-02-26T02:33:21;12.53;;;6.70;;
21438;SDS011;10880;50.302;18.736;2024-02-26T02:35:53;12.97;;;6.50;;
21438;SDS011;10880;50.302;18.736;2024-02-26T02:38:27;10.83;;;5.67;;
21438;SDS011;10880;50.302;18.736;2024-02-26T02:41:12;12.57;;;5.67;;
21438;SDS011;10880;50.302;18.736;2024-02-26T02:43:50;9.33;;;5.27;;
21438;SDS011;10880;50.302;18.736;2024-02-26T02:46:32;9.47;;;5.50;;
21438;SDS011;10880;50.302;18.736;2024-02-26T02:49:23;10.53;;;5.57;;
21438;SDS011;10880;50.302;18.736;2024-02-26T02:52:04;7.87;;;5.27;;
21438;SDS011;10880;50.302;18.736;2024-02-26T02:54:40;11.90;;;6.43;;
21438;SDS011;10880;50.302;18.736;2024-02-26T02:57:34;13.73;;;7.23;;
21438;SDS011;10880;50.302;18.736;2024-02-26T03:00:12;14.50;;;7.63;;
21438;SDS011;10880;50.302;18.736;2024-02-26T03:02:50;11.60;;;7.03;;
21438;SDS011;10880;50.302;18.736;2024-02-26T03:05:31;14.67;;;7.13;;
21438;SDS011;10880;50.302;18.736;2024-02-26T03:08:15;14.90;;;8.00;;
21438;SDS011;10880;50.302;18.736;2024-02-26T03:10:46;16.70;;;8.13;;
21438;SDS011;10880;50.302;18.736;2024-02-26T03:13:37;16.63;;;8.10;;
21438;SDS011;10880;50.302;18.736;2024-02-26T03:16:11;14.23;;;7.80;;
21438;SDS011;10880;50.302;18.736;2024-02-26T03:18:51;11.73;;;7.00;;
21438;SDS011;10880;50.302;18.736;2024-02-26T03:21:30;13.20;;;7.20;;
21438;SDS011;10880;50.302;18.736;2024-02-26T03:24:04;12.47;;;6.63;;
21438;SDS011;10880;50.302;18.736;2024-02-26T03:26:41;10.43;;;6.23;;
21438;SDS011;10880;50.302;18.736;2024-02-26T03:29:19;10.53;;;5.50;;
21438;SDS011;10880;50.302;18.736;2024-02-26T03:31:56;10.90;;;5.47;;
21438;SDS011;10880;50.302;18.736;2024-02-26T03:34:32;13.53;;;6.73;;
21438;SDS011;10880;50.302;18.736;2024-02-26T03:37:15;10.93;;;5.87;;
21438;SDS011;10880;50.302;18.736;2024-02-26T03:42:53;9.30;;;5.47;;
21438;SDS011;10880;50.302;18.736;2024-02-26T03:45:32;10.87;;;5.83;;
21438;SDS011;10880;50.302;18.736;2024-02-26T03:48:13;10.30;;;5.90;;
21438;SDS011;10880;50.302;18.736;2024-02-26T03:50:43;9.37;;;5.07;;
21438;SDS011;10880;50.302;18.736;2024-02-26T03:53:18;8.20;;;4.77;;
21438;SDS011;10880;50.302;18.736;2024-02-26T03:56:04;10.43;;;6.10;;
21438;SDS011;10880;50.302;18.736;2024-02-26T03:58:34;11.20;;;5.90;;
21438;SDS011;10880;50.302;18.736;2024-02-26T04:01:15;10.10;;;5.93;;
21438;SDS011;10880;50.302;18.736;2024-02-26T04:03:48;9.70;;;6.00;;
21438;SDS011;10880;50.302;18.736;2024-02-26T04:06:36;7.57;;;4.87;;
21438;SDS011;10880;50.302;18.736;2024-02-26T04:09:04;7.27;;;4.83;;
21438;SDS011;10880;50.302;18.736;2024-02-26T04:11:44;10.00;;;5.33;;
21438;SDS011;10880;50.302;18.736;2024-02-26T04:14:15;7.17;;;4.37;;
21438;SDS011;10880;50.302;18.736;2024-02-26T04:17:13;8.67;;;5.23;;
21438;SDS011;10880;50.302;18.736;2024-02-26T04:19:49;11.03;;;5.67;;
21438;SDS011;10880;50.302;18.736;2024-02-26T04:22:20;8.03;;;5.40;;
21438;SDS011;10880;50.302;18.736;2024-02-26T04:24:56;9.70;;;5.00;;
21438;SDS011;10880;50.302;18.736;2024-02-26T04:27:33;8.47;;;5.10;;
21438;SDS011;10880;50.302;18.736;2024-02-26T04:30:16;9.10;;;4.57;;
21438;SDS011;10880;50.302;18.736;2024-02-26T04:32:54;8.23;;;5.23;;
21438;SDS011;10880;50.302;18.736;2024-02-26T04:35:21;10.07;;;5.90;;
21438;SDS011;10880;50.302;18.736;2024-02-26T04:38:11;9.97;;;5.23;;
21438;SDS011;10880;50.302;18.736;2024-02-26T04:40:41;8.00;;;4.90;;
21438;SDS011;10880;50.302;18.736;2024-02-26T04:43:14;8.37;;;5.30;;
21438;SDS011;10880;50.302;18.736;2024-02-26T04:45:43;7.43;;;4.60;;
21438;SDS011;10880;50.302;18.736;2024-02-26T04:48:20;9.33;;;5.40;;
21438;SDS011;10880;50.302;18.736;2024-02-26T04:50:49;8.70;;;5.20;;
21438;SDS011;10880;50.302;18.736;2024-02-26T04:53:37;12.40;;;5.93;;
21438;SDS011;10880;50.302;18.736;2024-02-26T04:56:11;9.47;;;5.10;;
21438;SDS011;10880;50.302;18.736;2024-02-26T04:58:54;10.70;;;5.47;;
21438;SDS011;10880;50.302;18.736;2024-02-26T05:01:30;9.03;;;4.97;;
21438;SDS011;10880;50.302;18.736;2024-02-26T05:04:02;9.10;;;5.57;;
21438;SDS011;10880;50.302;18.736;2024-02-26T05:06:32;11.67;;;6.67;;
21438;SDS011;10880;50.302;18.736;2024-02-26T05:09:21;11.20;;;5.73;;
21438;SDS011;10880;50.302;18.736;2024-02-26T05:12:16;9.80;;;5.60;;
21438;SDS011;10880;50.302;18.736;2024-02-26T05:14:49;8.50;;;4.90;;
21438;SDS011;10880;50.302;18.736;2024-02-26T05:17:33;9.77;;;5.07;;
21438;SDS011;10880;50.302;18.736;2024-02-26T05:20:10;9.87;;;5.93;;
21438;SDS011;10880;50.302;18.736;2024-02-26T05:22:46;11.50;;;5.93;;
21438;SDS011;10880;50.302;18.736;2024-02-26T05:25:20;14.37;;;6.97;;
21438;SDS011;10880;50.302;18.736;2024-02-26T05:27:57;16.87;;;7.83;;
21438;SDS011;10880;50.302;18.736;2024-02-26T05:30:30;13.47;;;7.67;;
21438;SDS011;10880;50.302;18.736;2024-02-26T05:33:09;10.87;;;6.10;;
21438;SDS011;10880;50.302;18.736;2024-02-26T05:35:36;12.13;;;6.77;;
21438;SDS011;10880;50.302;18.736;2024-02-26T05:38:16;13.33;;;6.13;;
21438;SDS011;10880;50.302;18.736;2024-02-26T05:40:53;10.80;;;6.67;;
21438;SDS011;10880;50.302;18.736;2024-02-26T05:43:31;11.00;;;6.50;;
21438;SDS011;10880;50.302;18.736;2024-02-26T05:46:11;11.20;;;7.17;;
21438;SDS011;10880;50.302;18.736;2024-02-26T05:48:50;11.90;;;6.90;;
21438;SDS011;10880;50.302;18.736;2024-02-26T05:51:32;17.10;;;8.33;;
21438;SDS011;10880;50.302;18.736;2024-02-26T05:53:59;20.03;;;9.10;;
21438;SDS011;10880;50.302;18.736;2024-02-26T05:56:49;17.13;;;8.70;;
21438;SDS011;10880;50.302;18.736;2024-02-26T05:59:21;17.43;;;8.50;;
21438;SDS011;10880;50.302;18.736;2024-02-26T06:01:50;16.70;;;9.80;;
21438;SDS011;10880;50.302;18.736;2024-02-26T06:04:36;17.17;;;8.57;;
21438;SDS011;10880;50.302;18.736;2024-02-26T06:07:08;15.27;;;8.83;;
21438;SDS011;10880;50.302;18.736;2024-02-26T06:09:47;12.90;;;7.27;;
21438;SDS011;10880;50.302;18.736;2024-02-26T06:18:32;13.43;;;7.50;;
21438;SDS011;10880;50.302;18.736;2024-02-26T06:21:34;20.70;;;9.37;;
21438;SDS011;10880;50.302;18.736;2024-02-26T06:24:17;15.13;;;7.80;;
21438;SDS011;10880;50.302;18.736;2024-02-26T06:26:46;14.67;;;8.73;;
21438;SDS011;10880;50.302;18.736;2024-02-26T06:29:39;14.53;;;8.43;;
21438;SDS011;10880;50.302;18.736;2024-02-26T06:35:10;13.30;;;6.77;;
21438;SDS011;10880;50.302;18.736;2024-02-26T06:37:50;9.93;;;6.07;;
21438;SDS011;10880;50.302;18.736;2024-02-26T06:40:24;12.93;;;6.97;;
21438;SDS011;10880;50.302;18.736;2024-02-26T06:42:51;14.00;;;8.10;;
21438;SDS011;10880;50.302;18.736;2024-02-26T06:45:25;15.77;;;8.57;;
21438;SDS011;10880;50.302;18.736;2024-02-26T06:47:54;12.53;;;6.97;;
21438;SDS011;10880;50.302;18.736;2024-02-26T06:50:24;14.13;;;7.57;;
21438;SDS011;10880;50.302;18.736;2024-02-26T06:53:01;20.90;;;9.50;;
21438;SDS011;10880;50.302;18.736;2024-02-26T06:55:35;22.03;;;9.97;;
21438;SDS011;10880;50.302;18.736;2024-02-26T06:58:03;15.53;;;8.53;;
21438;SDS011;10880;50.302;18.736;2024-02-26T07:00:42;15.73;;;8.27;;
21438;SDS011;10880;50.302;18.736;2024-02-26T07:03:19;14.87;;;7.63;;
21438;SDS011;10880;50.302;18.736;2024-02-26T07:05:47;13.20;;;7.60;;
21438;SDS011;10880;50.302;18.736;2024-02-26T07:08:17;15.63;;;8.50;;
21438;SDS011;10880;50.302;18.736;2024-02-26T07:11:00;16.23;;;9.03;;
21438;SDS011;10880;50.302;18.736;2024-02-26T07:13:36;18.37;;;9.57;;
21438;SDS011;10880;50.302;18.736;2024-02-26T07:16:09;16.57;;;8.47;;
21438;SDS011;10880;50.302;18.736;2024-02-26T07:18:52;16.73;;;8.63;;
21438;SDS011;10880;50.302;18.736;2024-02-26T07:21:19;18.00;;;8.80;;
21438;SDS011;10880;50.302;18.736;2024-02-26T07:30:17;15.87;;;8.20;;
21438;SDS011;10880;50.302;18.736;2024-02-26T07:32:45;27.87;;;13.83;;
21438;SDS011;10880;50.302;18.736;2024-02-26T07:35:21;24.43;;;11.33;;
21438;SDS011;10880;50.302;18.736;2024-02-26T07:37:52;19.33;;;9.40;;
21438;SDS011;10880;50.302;18.736;2024-02-26T07:40:27;15.00;;;8.23;;
21438;SDS011;10880;50.302;18.736;2024-02-26T07:42:59;12.17;;;7.53;;
21438;SDS011;10880;50.302;18.736;2024-02-26T07:45:28;11.37;;;6.97;;
21438;SDS011;10880;50.302;18.736;2024-02-26T07:47:55;11.50;;;6.30;;
21438;SDS011;10880;50.302;18.736;2024-02-26T07:50:26;14.17;;;8.07;;
21438;SDS011;10880;50.302;18.736;2024-02-26T07:52:56;13.27;;;7.03;;
21438;SDS011;10880;50.302;18.736;2024-02-26T07:55:30;14.83;;;7.87;;
21438;SDS011;10880;50.302;18.736;2024-02-26T07:58:08;13.37;;;7.13;;
21438;SDS011;10880;50.302;18.736;2024-02-26T08:03:30;8.70;;;5.50;;
21438;SDS011;10880;50.302;18.736;2024-02-26T08:05:59;10.20;;;5.87;;
21438;SDS011;10880;50.302;18.736;2024-02-26T08:08:43;11.60;;;6.27;;
21438;SDS011;10880;50.302;18.736;2024-02-26T08:11:10;12.53;;;6.70;;
21438;SDS011;10880;50.302;18.736;2024-02-26T08:14:00;12.63;;;6.80;;
21438;SDS011;10880;50.302;18.736;2024-02-26T08:16:33;10.53;;;6.37;;
21438;SDS011;10880;50.302;18.736;2024-02-26T08:19:02;10.03;;;6.47;;
21438;SDS011;10880;50.302;18.736;2024-02-26T08:21:39;14.43;;;6.83;;
21438;SDS011;10880;50.302;18.736;2024-02-26T08:24:06;10.23;;;5.60;;
21438;SDS011;10880;50.302;18.736;2024-02-26T08:26:34;10.97;;;6.47;;
21438;SDS011;10880;50.302;18.736;2024-02-26T08:29:02;7.97;;;4.80;;
21438;SDS011;10880;50.302;18.736;2024-02-26T08:31:29;9.30;;;5.60;;
21438;SDS011;10880;50.302;18.736;2024-02-26T08:33:58;10.20;;;5.80;;
21438;SDS011;10880;50.302;18.736;2024-02-26T08:36:28;13.07;;;7.10;;
21438;SDS011;10880;50.302;18.736;2024-02-26T08:38:55;14.30;;;7.60;;
21438;SDS011;10880;50.302;18.736;2024-02-26T08:41:22;12.57;;;6.67;;
21438;SDS011;10880;50.302;18.736;2024-02-26T08:43:49;12.03;;;7.00;;
21438;SDS011;10880;50.302;18.736;2024-02-26T08:46:16;14.37;;;7.37;;
21438;SDS011;10880;50.302;18.736;2024-02-26T08:48:44;11.33;;;6.77;;
21438;SDS011;10880;50.302;18.736;2024-02-26T08:51:10;10.33;;;6.33;;
21438;SDS011;10880;50.302;18.736;2024-02-26T08:53:38;11.53;;;7.00;;
21438;SDS011;10880;50.302;18.736;2024-02-26T08:56:08;12.10;;;7.10;;
21438;SDS011;10880;50.302;18.736;2024-02-26T08:58:36;11.03;;;6.40;;
21438;SDS011;10880;50.302;18.736;2024-02-26T09:01:11;10.67;;;6.57;;
21438;SDS011;10880;50.302;18.736;2024-02-26T09:03:39;10.60;;;6.40;;
21438;SDS011;10880;50.302;18.736;2024-02-26T09:06:35;9.37;;;5.70;;
21438;SDS011;10880;50.302;18.736;2024-02-26T09:09:03;9.67;;;5.63;;
21438;SDS011;10880;50.302;18.736;2024-02-26T09:11:42;7.17;;;4.27;;
21438;SDS011;10880;50.302;18.736;2024-02-26T09:17:44;5.87;;;4.33;;
21438;SDS011;10880;50.302;18.736;2024-02-26T09:20:50;5.97;;;4.37;;
21438;SDS011;10880;50.302;18.736;2024-02-26T09:24:28;7.00;;;4.70;;
21438;SDS011;10880;50.302;18.736;2024-02-26T09:27:13;5.67;;;3.93;;
21438;SDS011;10880;50.302;18.736;2024-02-26T09:30:26;5.77;;;3.90;;
21438;SDS011;10880;50.302;18.736;2024-02-26T09:32:58;8.77;;;4.70;;
21438;SDS011;10880;50.302;18.736;2024-02-26T09:35:30;8.00;;;4.80;;
21438;SDS011;10880;50.302;18.736;2024-02-26T09:38:18;8.43;;;5.13;;
21438;SDS011;10880;50.302;18.736;2024-02-26T09:44:01;6.73;;;3.93;;
21438;SDS011;10880;50.302;18.736;2024-02-26T09:46:38;6.23;;;4.30;;
21438;SDS011;10880;50.302;18.736;2024-02-26T09:49:08;11.17;;;5.30;;
21438;SDS011;10880;50.302;18.736;2024-02-26T09:51:53;6.67;;;4.10;;
21438;SDS011;10880;50.302;18.736;2024-02-26T09:54:28;8.03;;;5.13;;
21438;SDS011;10880;50.302;18.736;2024-02-26T09:57:11;6.47;;;4.50;;
21438;SDS011;10880;50.302;18.736;2024-02-26T09:59:47;5.10;;;3.70;;
21438;SDS011;10880;50.302;18.736;2024-02-26T10:02:27;5.73;;;3.87;;
21438;SDS011;10880;50.302;18.736;2024-02-26T10:05:08;7.53;;;4.77;;
21438;SDS011;10880;50.302;18.736;2024-02-26T10:07:41;6.33;;;4.30;;
21438;SDS011;10880;50.302;18.736;2024-02-26T10:10:23;6.50;;;3.77;;
21438;SDS011;10880;50.302;18.736;2024-02-26T10:16:31;5.20;;;3.47;;
21438;SDS011;10880;50.302;18.736;2024-02-26T10:19:34;3.67;;;3.00;;
21438;SDS011;10880;50.302;18.736;2024-02-26T10:22:28;4.27;;;3.10;;
21438;SDS011;10880;50.302;18.736;2024-02-26T10:25:25;4.20;;;3.30;;
21438;SDS011;10880;50.302;18.736;2024-02-26T10:28:24;4.33;;;2.80;;
21438;SDS011;10880;50.302;18.736;2024-02-26T10:30:56;3.13;;;2.83;;
21438;SDS011;10880;50.302;18.736;2024-02-26T10:33:34;3.53;;;2.77;;
21438;SDS011;10880;50.302;18.736;2024-02-26T10:36:10;2.60;;;2.40;;
21438;SDS011;10880;50.302;18.736;2024-02-26T10:42:05;3.10;;;2.70;;
21438;SDS011;10880;50.302;18.736;2024-02-26T10:44:45;2.47;;;2.27;;
21438;SDS011;10880;50.302;18.736;2024-02-26T10:47:29;3.73;;;2.70;;
21438;SDS011;10880;50.302;18.736;2024-02-26T10:50:06;2.57;;;2.37;;
21438;SDS011;10880;50.302;18.736;2024-02-26T10:52:51;11.70;;;6.93;;
21438;SDS011;10880;50.302;18.736;2024-02-26T10:55:27;8.80;;;5.70;;
21438;SDS011;10880;50.302;18.736;2024-02-26T10:58:04;7.37;;;4.77;;
21438;SDS011;10880;50.302;18.736;2024-02-26T11:00:41;4.70;;;3.70;;
21438;SDS011;10880;50.302;18.736;2024-02-26T11:03:25;3.07;;;2.70;;
21438;SDS011;10880;50.302;18.736;2024-02-26T11:06:10;2.80;;;2.50;;
21438;SDS011;10880;50.302;18.736;2024-02-26T11:08:44;3.13;;;2.57;;
21438;SDS011;10880;50.302;18.736;2024-02-26T11:11:20;3.30;;;2.60;;
21438;SDS011;10880;50.302;18.736;2024-02-26T11:13:49;2.87;;;2.43;;
21438;SDS011;10880;50.302;18.736;2024-02-26T11:16:25;3.63;;;2.90;;
21438;SDS011;10880;50.302;18.736;2024-02-26T11:18:54;3.10;;;2.80;;
21438;SDS011;10880;50.302;18.736;2024-02-26T11:23:09;2.90;;;2.70;;
21438;SDS011;10880;50.302;18.736;2024-02-26T11:25:40;2.83;;;2.40;;
21438;SDS011;10880;50.302;18.736;2024-02-26T11:28:13;3.13;;;2.60;;
21438;SDS011;10880;50.302;18.736;2024-02-26T11:30:51;6.57;;;4.10;;
21438;SDS011;10880;50.302;18.736;2024-02-26T11:33:19;7.63;;;4.30;;
21438;SDS011;10880;50.302;18.736;2024-02-26T11:35:49;4.40;;;2.87;;
21438;SDS011;10880;50.302;18.736;2024-02-26T11:38:24;2.87;;;2.47;;
21438;SDS011;10880;50.302;18.736;2024-02-26T11:40:56;3.20;;;2.90;;
21438;SDS011;10880;50.302;18.736;2024-02-26T11:46:33;4.37;;;3.60;;
21438;SDS011;10880;50.302;18.736;2024-02-26T11:51:53;4.83;;;3.40;;
21438;SDS011;10880;50.302;18.736;2024-02-26T11:57:29;5.07;;;2.83;;
21438;SDS011;10880;50.302;18.736;2024-02-26T12:00:12;2.40;;;2.20;;
21438;SDS011;10880;50.302;18.736;2024-02-26T12:05:09;3.87;;;2.70;;
21438;SDS011;10880;50.302;18.736;2024-02-26T12:07:44;3.13;;;2.83;;
21438;SDS011;10880;50.302;18.736;2024-02-26T12:15:23;2.57;;;2.30;;
21438;SDS011;10880;50.302;18.736;2024-02-26T12:17:52;2.40;;;2.20;;
21438;SDS011;10880;50.302;18.736;2024-02-26T12:20:19;2.17;;;2.03;;
21438;SDS011;10880;50.302;18.736;2024-02-26T12:22:46;2.40;;;2.20;;
21438;SDS011;10880;50.302;18.736;2024-02-26T12:25:14;2.50;;;2.30;;
21438;SDS011;10880;50.302;18.736;2024-02-26T12:27:40;4.90;;;3.30;;
21438;SDS011;10880;50.302;18.736;2024-02-26T12:30:07;14.30;;;7.00;;
21438;SDS011;10880;50.302;18.736;2024-02-26T12:32:35;10.60;;;5.67;;
21438;SDS011;10880;50.302;18.736;2024-02-26T12:35:02;7.00;;;4.13;;
21438;SDS011;10880;50.302;18.736;2024-02-26T12:37:29;6.03;;;3.90;;
21438;SDS011;10880;50.302;18.736;2024-02-26T12:39:57;4.33;;;3.30;;
21438;SDS011;10880;50.302;18.736;2024-02-26T12:42:24;5.20;;;4.13;;
21438;SDS011;10880;50.302;18.736;2024-02-26T12:44:51;7.33;;;5.73;;
21438;SDS011;10880;50.302;18.736;2024-02-26T12:47:18;11.73;;;8.27;;
21438;SDS011;10880;50.302;18.736;2024-02-26T12:49:48;6.20;;;4.90;;
21438;SDS011;10880;50.302;18.736;2024-02-26T12:52:16;4.70;;;3.83;;
21438;SDS011;10880;50.302;18.736;2024-02-26T12:54:43;4.93;;;3.10;;
21438;SDS011;10880;50.302;18.736;2024-02-26T12:57:11;3.13;;;2.43;;
21438;SDS011;10880;50.302;18.736;2024-02-26T12:59:38;4.60;;;3.30;;
21438;SDS011;10880;50.302;18.736;2024-02-26T13:02:05;4.57;;;3.10;;
21438;SDS011;10880;50.302;18.736;2024-02-26T13:04:31;2.53;;;2.33;;
21438;SDS011;10880;50.302;18.736;2024-02-26T13:06:59;2.83;;;2.63;;
21438;SDS011;10880;50.302;18.736;2024-02-26T13:09:33;2.83;;;2.63;;
21438;SDS011;10880;50.302;18.736;2024-02-26T13:12:04;3.00;;;2.70;;
21438;SDS011;10880;50.302;18.736;2024-02-26T13:14:31;4.70;;;3.10;;
21438;SDS011;10880;50.302;18.736;2024-02-26T13:17:01;4.47;;;2.90;;
21438;SDS011;10880;50.302;18.736;2024-02-26T13:19:28;4.53;;;3.43;;
21438;SDS011;10880;50.302;18.736;2024-02-26T13:21:55;7.67;;;3.47;;
21438;SDS011;10880;50.302;18.736;2024-02-26T13:24:22;3.27;;;2.97;;
21438;SDS011;10880;50.302;18.736;2024-02-26T13:26:54;3.57;;;2.70;;
21438;SDS011;10880;50.302;18.736;2024-02-26T13:29:21;3.50;;;2.80;;
21438;SDS011;10880;50.302;18.736;2024-02-26T13:31:47;4.33;;;3.17;;
21438;SDS011;10880;50.302;18.736;2024-02-26T13:36:54;3.47;;;2.90;;
21438;SDS011;10880;50.302;18.736;2024-02-26T13:39:24;3.10;;;2.57;;
21438;SDS011;10880;50.302;18.736;2024-02-26T13:41:51;3.57;;;2.90;;
21438;SDS011;10880;50.302;18.736;2024-02-26T13:44:24;3.27;;;2.93;;
21438;SDS011;10880;50.302;18.736;2024-02-26T13:46:51;4.83;;;3.47;;
21438;SDS011;10880;50.302;18.736;2024-02-26T13:49:17;3.23;;;2.93;;
21438;SDS011;10880;50.302;18.736;2024-02-26T13:51:44;4.13;;;3.03;;
21438;SDS011;10880;50.302;18.736;2024-02-26T13:54:11;3.50;;;3.10;;
21438;SDS011;10880;50.302;18.736;2024-02-26T13:56:39;3.70;;;3.00;;
21438;SDS011;10880;50.302;18.736;2024-02-26T13:59:06;5.13;;;3.17;;
21438;SDS011;10880;50.302;18.736;2024-02-26T14:01:32;3.60;;;2.90;;
21438;SDS011;10880;50.302;18.736;2024-02-26T14:03:59;3.90;;;2.87;;
21438;SDS011;10880;50.302;18.736;2024-02-26T14:06:27;2.83;;;2.53;;
21438;SDS011;10880;50.302;18.736;2024-02-26T14:08:57;2.83;;;2.53;;
21438;SDS011;10880;50.302;18.736;2024-02-26T14:11:24;2.93;;;2.60;;
21438;SDS011;10880;50.302;18.736;2024-02-26T14:13:51;4.13;;;2.90;;
21438;SDS011;10880;50.302;18.736;2024-02-26T14:16:19;3.90;;;3.10;;
21438;SDS011;10880;50.302;18.736;2024-02-26T14:18:46;5.20;;;3.60;;
21438;SDS011;10880;50.302;18.736;2024-02-26T14:21:15;3.90;;;3.10;;
21438;SDS011;10880;50.302;18.736;2024-02-26T14:23:44;3.97;;;3.17;;
21438;SDS011;10880;50.302;18.736;2024-02-26T14:26:12;3.83;;;3.20;;
21438;SDS011;10880;50.302;18.736;2024-02-26T14:28:39;3.87;;;3.40;;
21438;SDS011;10880;50.302;18.736;2024-02-26T14:31:08;5.67;;;3.57;;
21438;SDS011;10880;50.302;18.736;2024-02-26T14:33:39;5.13;;;3.40;;
21438;SDS011;10880;50.302;18.736;2024-02-26T14:36:08;5.10;;;3.10;;
21438;SDS011;10880;50.302;18.736;2024-02-26T14:38:35;3.97;;;3.03;;
21438;SDS011;10880;50.302;18.736;2024-02-26T14:41:02;3.90;;;3.27;;
21438;SDS011;10880;50.302;18.736;2024-02-26T14:43:29;4.60;;;3.60;;
21438;SDS011;10880;50.302;18.736;2024-02-26T14:45:57;7.23;;;3.90;;
21438;SDS011;10880;50.302;18.736;2024-02-26T14:48:25;5.20;;;3.50;;
21438;SDS011;10880;50.302;18.736;2024-02-26T14:50:52;5.37;;;3.50;;
21438;SDS011;10880;50.302;18.736;2024-02-26T14:53:18;5.10;;;3.90;;
21438;SDS011;10880;50.302;18.736;2024-02-26T14:55:45;5.07;;;4.03;;
21438;SDS011;10880;50.302;18.736;2024-02-26T14:58:12;6.30;;;3.90;;
21438;SDS011;10880;50.302;18.736;2024-02-26T15:00:38;5.50;;;4.20;;
21438;SDS011;10880;50.302;18.736;2024-02-26T15:03:06;4.43;;;3.37;;
21438;SDS011;10880;50.302;18.736;2024-02-26T15:05:33;4.77;;;3.43;;
21438;SDS011;10880;50.302;18.736;2024-02-26T15:08:00;4.10;;;3.20;;
21438;SDS011;10880;50.302;18.736;2024-02-26T15:10:28;5.33;;;3.80;;
21438;SDS011;10880;50.302;18.736;2024-02-26T15:12:54;5.07;;;3.87;;
21438;SDS011;10880;50.302;18.736;2024-02-26T15:15:22;5.60;;;3.93;;
21438;SDS011;10880;50.302;18.736;2024-02-26T15:17:48;4.57;;;3.60;;
21438;SDS011;10880;50.302;18.736;2024-02-26T15:20:16;5.60;;;3.80;;
21438;SDS011;10880;50.302;18.736;2024-02-26T15:22:43;5.67;;;4.13;;
21438;SDS011;10880;50.302;18.736;2024-02-26T15:25:10;5.23;;;3.30;;
21438;SDS011;10880;50.302;18.736;2024-02-26T15:27:36;5.57;;;3.53;;
21438;SDS011;10880;50.302;18.736;2024-02-26T15:30:03;6.83;;;3.90;;
21438;SDS011;10880;50.302;18.736;2024-02-26T15:32:30;6.43;;;3.97;;
21438;SDS011;10880;50.302;18.736;2024-02-26T15:34:57;5.60;;;3.47;;
21438;SDS011;10880;50.302;18.736;2024-02-26T15:37:23;6.50;;;4.20;;
21438;SDS011;10880;50.302;18.736;2024-02-26T15:39:50;4.93;;;3.90;;
21438;SDS011;10880;50.302;18.736;2024-02-26T15:42:16;7.70;;;4.70;;
21438;SDS011;10880;50.302;18.736;2024-02-26T15:44:43;14.97;;;6.83;;
21438;SDS011;10880;50.302;18.736;2024-02-26T15:47:10;17.77;;;7.47;;
21438;SDS011;10880;50.302;18.736;2024-02-26T15:49:36;14.60;;;7.17;;
21438;SDS011;10880;50.302;18.736;2024-02-26T15:52:04;12.67;;;6.77;;
21438;SDS011;10880;50.302;18.736;2024-02-26T15:54:32;13.27;;;6.90;;
21438;SDS011;10880;50.302;18.736;2024-02-26T15:56:59;12.73;;;6.73;;
21438;SDS011;10880;50.302;18.736;2024-02-26T15:59:28;10.27;;;6.17;;
21438;SDS011;10880;50.302;18.736;2024-02-26T16:01:56;7.87;;;5.13;;
21438;SDS011;10880;50.302;18.736;2024-02-26T16:04:26;7.60;;;4.47;;